createdAt,value
2023-05-03T00:02:23.040Z,13.30
2023-05-03T00:04:53.613Z,7.28
2023-05-03T00:07:22.996Z,12.88
2023-05-03T00:12:16.698Z,12.20
2023-05-03T00:14:43.300Z,10.25
2023-05-03T00:17:10.093Z,10.32
2023-05-03T00:19:37.583Z,10.55
2023-05-03T00:22:04.360Z,9.65
2023-05-03T00:24:31.317Z,10.23
2023-05-03T00:26:57.928Z,10.68
2023-05-03T00:29:24.540Z,8.52
2023-05-03T00:31:51.245Z,8.68
2023-05-03T00:34:18.000Z,9.02
2023-05-03T00:36:44.610Z,9.20
2023-05-03T00:39:11.602Z,8.95
2023-05-03T00:41:39.281Z,9.10
2023-05-03T00:44:08.720Z,10.77
2023-05-03T00:49:02.386Z,10.23
2023-05-03T00:51:29.202Z,7.68
2023-05-03T00:53:56.634Z,10.70
2023-05-03T00:56:23.907Z,7.97
2023-05-03T00:58:53.827Z,6.32
2023-05-03T01:01:20.742Z,10.65
2023-05-03T01:03:48.223Z,9.63
2023-05-03T01:06:37.991Z,9.52
2023-05-03T01:09:27.572Z,7.65
2023-05-03T01:12:12.687Z,7.20
2023-05-03T01:15:07.655Z,11.70
2023-05-03T01:17:39.362Z,11.13
2023-05-03T01:20:10.877Z,9.98
2023-05-03T01:22:48.224Z,8.38
2023-05-03T01:25:16.253Z,11.75
2023-05-03T01:27:43.424Z,11.07
2023-05-03T01:30:12.375Z,9.98
2023-05-03T01:33:06.008Z,9.95
2023-05-03T01:35:50.880Z,9.23
2023-05-03T01:38:18.634Z,7.95
2023-05-03T01:40:49.884Z,8.30
2023-05-03T01:43:18.363Z,12.25
2023-05-03T01:45:45.704Z,8.50
2023-05-03T01:48:15.014Z,7.95
2023-05-03T01:50:41.649Z,8.90
2023-05-03T01:53:08.432Z,9.35
2023-05-03T01:55:35.082Z,9.98
2023-05-03T01:58:01.723Z,11.38
2023-05-03T02:00:28.432Z,8.52
2023-05-03T02:02:55.282Z,6.82
2023-05-03T02:05:22.197Z,11.57
2023-05-03T02:07:48.880Z,7.68
2023-05-03T02:10:16.379Z,10.52
2023-05-03T02:12:46.149Z,7.65
2023-05-03T02:15:14.047Z,8.57
2023-05-03T02:17:42.631Z,11.18
2023-05-03T02:20:12.712Z,10.73
2023-05-03T02:22:39.515Z,8.63
2023-05-03T02:25:07.223Z,18.42
2023-05-03T02:27:33.922Z,16.58
2023-05-03T02:30:01.386Z,18.70
2023-05-03T02:32:28.578Z,12.93
2023-05-03T02:34:55.715Z,10.20
2023-05-03T02:37:22.402Z,10.40
2023-05-03T02:39:49.151Z,10.27
2023-05-03T02:42:16.290Z,9.00
2023-05-03T02:44:43.013Z,13.30
2023-05-03T02:47:10.534Z,10.18
2023-05-03T02:49:37.247Z,6.78
2023-05-03T02:52:03.878Z,12.32
2023-05-03T02:54:30.555Z,9.50
2023-05-03T02:56:57.153Z,8.75
2023-05-03T02:59:23.854Z,9.90
2023-05-03T03:01:50.689Z,11.50
2023-05-03T03:04:17.372Z,6.57
2023-05-03T03:06:44.056Z,10.05
2023-05-03T03:09:12.610Z,8.20
2023-05-03T03:11:39.340Z,9.45
2023-05-03T03:14:06.174Z,14.48
2023-05-03T03:16:32.980Z,12.65
2023-05-03T03:18:59.737Z,11.02
2023-05-03T03:21:26.837Z,13.43
2023-05-03T03:23:53.435Z,9.68
2023-05-03T03:26:20.180Z,15.55
2023-05-03T03:28:46.816Z,12.48
2023-05-03T03:31:13.598Z,10.65
2023-05-03T03:33:40.345Z,11.07
2023-05-03T03:36:07.988Z,12.77
2023-05-03T03:38:34.645Z,10.63
2023-05-03T03:41:01.533Z,8.73
2023-05-03T03:43:28.372Z,13.43
2023-05-03T03:45:55.082Z,8.65
2023-05-03T03:48:21.707Z,9.45
2023-05-03T03:50:48.409Z,15.43
2023-05-03T03:53:15.135Z,10.63
2023-05-03T03:55:41.944Z,9.40
2023-05-03T03:58:08.923Z,9.35
2023-05-03T04:00:38.862Z,9.85
2023-05-03T04:03:07.897Z,9.93
2023-05-03T04:05:34.953Z,9.55
2023-05-03T04:08:01.617Z,11.65
2023-05-03T04:10:28.276Z,10.02
2023-05-03T04:12:55.711Z,8.52
2023-05-03T04:15:22.357Z,11.60
2023-05-03T04:17:49.694Z,9.55
2023-05-03T04:20:17.782Z,9.88
2023-05-03T04:22:44.423Z,9.82
2023-05-03T04:25:19.928Z,8.02
2023-05-03T04:27:47.511Z,11.45
2023-05-03T04:30:15.091Z,11.02
2023-05-03T04:32:42.861Z,9.77
2023-05-03T04:35:12.500Z,9.85
2023-05-03T04:37:40.605Z,8.48
2023-05-03T04:40:09.684Z,17.38
2023-05-03T04:42:36.555Z,8.52
2023-05-03T04:45:04.242Z,8.18
2023-05-03T04:47:31.135Z,7.75
2023-05-03T04:49:57.792Z,12.45
2023-05-03T04:52:25.520Z,10.75
2023-05-03T04:54:52.500Z,11.70
2023-05-03T04:57:19.133Z,9.15
2023-05-03T04:59:46.128Z,11.32
2023-05-03T05:02:12.800Z,11.55
2023-05-03T05:04:39.624Z,12.90
2023-05-03T05:07:06.287Z,13.77
2023-05-03T05:09:32.965Z,15.68
2023-05-03T05:11:59.742Z,13.80
2023-05-03T05:14:28.453Z,13.77
2023-05-03T05:16:55.113Z,18.67
2023-05-03T05:19:21.801Z,13.45
2023-05-03T05:21:48.524Z,13.10
2023-05-03T05:24:15.116Z,13.40
2023-05-03T05:26:42.363Z,14.55
2023-05-03T05:29:09.117Z,11.15
2023-05-03T05:31:36.751Z,14.05
2023-05-03T05:34:03.821Z,9.85
2023-05-03T05:36:31.021Z,13.98
2023-05-03T05:38:57.642Z,12.23
2023-05-03T05:41:24.317Z,15.05
2023-05-03T05:43:51.041Z,12.05
2023-05-03T05:46:17.823Z,13.23
2023-05-03T05:48:44.522Z,10.45
2023-05-03T05:51:11.151Z,12.20
2023-05-03T05:53:37.873Z,16.42
2023-05-03T05:56:06.227Z,12.48
2023-05-03T05:58:32.868Z,12.57
2023-05-03T06:01:03.835Z,10.98
2023-05-03T06:03:31.875Z,10.35
2023-05-03T06:05:58.775Z,15.75
2023-05-03T06:08:25.980Z,17.02
2023-05-03T06:10:53.288Z,10.27
2023-05-03T06:13:20.013Z,12.50
2023-05-03T06:15:46.826Z,12.02
2023-05-03T06:18:13.545Z,15.02
2023-05-03T06:20:40.357Z,11.45
2023-05-03T06:23:07.033Z,9.88
2023-05-03T06:25:34.318Z,13.13
2023-05-03T06:28:01.205Z,12.77
2023-05-03T06:30:28.659Z,9.38
2023-05-03T06:32:55.537Z,10.48
2023-05-03T06:35:22.303Z,10.48
2023-05-03T06:37:49.606Z,8.82
2023-05-03T06:40:16.402Z,8.85
2023-05-03T06:42:42.976Z,12.45
2023-05-03T06:45:10.110Z,10.77
2023-05-03T06:47:37.300Z,11.93
2023-05-03T06:50:05.227Z,10.52
2023-05-03T06:52:32.036Z,9.10
2023-05-03T06:54:58.704Z,7.60
2023-05-03T06:57:27.485Z,5.88
2023-05-03T06:59:55.383Z,10.95
2023-05-03T07:02:22.835Z,5.18
2023-05-03T07:04:49.700Z,7.13
2023-05-03T07:07:16.653Z,8.88
2023-05-03T07:09:44.013Z,6.22
2023-05-03T07:12:11.405Z,6.47
2023-05-03T07:14:39.801Z,12.38
2023-05-03T07:17:06.640Z,6.93
2023-05-03T07:19:33.352Z,7.65
2023-05-03T07:21:59.993Z,4.13
2023-05-03T07:24:26.563Z,7.28
2023-05-03T07:26:53.818Z,7.15
2023-05-03T07:29:21.098Z,5.25
2023-05-03T07:31:47.904Z,5.32
2023-05-03T07:34:14.934Z,5.40
2023-05-03T07:36:41.746Z,5.40
2023-05-03T07:39:08.673Z,9.63
2023-05-03T07:41:35.531Z,5.57
2023-05-03T07:44:02.245Z,5.18
2023-05-03T07:46:29.001Z,7.50
2023-05-03T07:48:55.635Z,4.68
2023-05-03T07:51:22.289Z,5.38
2023-05-03T07:53:48.892Z,9.02
2023-05-03T07:56:15.706Z,5.45
2023-05-03T07:58:43.663Z,8.25
2023-05-03T08:03:38.709Z,6.30
2023-05-03T08:06:05.962Z,5.93
2023-05-03T08:08:33.988Z,5.63
2023-05-03T08:11:00.629Z,6.32
2023-05-03T08:13:27.353Z,5.32
2023-05-03T08:15:54.039Z,4.63
2023-05-03T08:18:23.552Z,5.43
2023-05-03T08:20:50.782Z,5.57
2023-05-03T08:23:17.933Z,3.88
2023-05-03T08:25:45.449Z,7.05
2023-05-03T08:28:12.142Z,4.95
2023-05-03T08:30:38.888Z,5.45
2023-05-03T08:33:05.819Z,6.93
2023-05-03T08:35:32.509Z,5.10
2023-05-03T08:37:59.149Z,7.70
2023-05-03T08:40:28.193Z,5.85
2023-05-03T08:42:58.889Z,5.50
2023-05-03T08:45:25.697Z,6.93
2023-05-03T08:47:55.464Z,6.47
2023-05-03T08:50:23.302Z,5.07
2023-05-03T08:52:50.752Z,5.80
2023-05-03T08:55:17.560Z,5.57
2023-05-03T08:57:44.160Z,5.40
2023-05-03T09:00:12.871Z,4.82
2023-05-03T09:02:40.445Z,8.82
2023-05-03T09:05:16.249Z,7.15
2023-05-03T09:08:06.135Z,5.68
2023-05-03T09:10:34.282Z,10.95
2023-05-03T09:13:02.611Z,5.63
2023-05-03T09:15:30.654Z,6.07
2023-05-03T09:18:27.145Z,4.88
2023-05-03T09:20:54.160Z,6.18
2023-05-03T09:23:26.703Z,6.70
2023-05-03T09:25:53.551Z,6.65
2023-05-03T09:28:21.140Z,4.57
2023-05-03T09:30:49.525Z,6.93
2023-05-03T09:33:25.229Z,4.95
2023-05-03T09:36:03.480Z,7.32
2023-05-03T09:38:32.667Z,3.80
2023-05-03T09:40:59.921Z,6.38
2023-05-03T09:43:26.820Z,6.43
2023-05-03T09:46:07.186Z,7.97
2023-05-03T09:48:33.910Z,3.92
2023-05-03T09:51:00.880Z,5.93
2023-05-03T09:53:28.236Z,3.50
2023-05-03T09:55:56.148Z,5.15
2023-05-03T09:58:24.369Z,7.38
2023-05-03T10:00:52.623Z,5.47
2023-05-03T10:03:28.329Z,3.63
2023-05-03T10:05:56.018Z,8.85
2023-05-03T10:08:35.167Z,6.05
2023-05-03T10:11:04.156Z,5.50
2023-05-03T10:13:31.958Z,5.43
2023-05-03T10:16:11.515Z,6.85
2023-05-03T10:18:48.145Z,5.30
2023-05-03T10:21:21.875Z,4.53
2023-05-03T10:24:10.163Z,4.35
2023-05-03T10:26:36.815Z,7.78
2023-05-03T10:29:04.214Z,6.30
2023-05-03T10:31:48.043Z,6.32
2023-05-03T10:34:25.551Z,7.20
2023-05-03T10:36:53.375Z,5.63
2023-05-03T10:39:21.100Z,5.00
2023-05-03T10:42:03.608Z,3.90
2023-05-03T10:44:49.076Z,7.18
2023-05-03T10:47:24.965Z,7.18
2023-05-03T10:50:16.582Z,5.38
2023-05-03T10:52:43.252Z,6.53
2023-05-03T10:55:15.823Z,7.38
2023-05-03T10:57:44.094Z,5.43
2023-05-03T11:00:23.545Z,7.20
2023-05-03T11:03:09.881Z,6.28
2023-05-03T11:05:37.684Z,4.15
2023-05-03T11:08:11.157Z,5.25
2023-05-03T11:10:37.898Z,3.53
2023-05-03T11:13:04.623Z,5.60
2023-05-03T11:15:31.472Z,4.72
2023-05-03T11:17:58.212Z,6.15
2023-05-03T11:20:24.956Z,4.75
2023-05-03T11:22:52.388Z,3.97
2023-05-03T11:25:19.823Z,6.70
2023-05-03T11:27:49.476Z,6.30
2023-05-03T11:30:16.316Z,4.53
2023-05-03T11:32:43.337Z,7.15
2023-05-03T11:35:12.324Z,5.78
2023-05-03T11:37:38.954Z,5.78
2023-05-03T11:40:30.399Z,5.03
2023-05-03T11:43:00.883Z,8.00
2023-05-03T11:45:38.378Z,4.18
2023-05-03T11:48:05.311Z,6.38
2023-05-03T11:50:57.674Z,6.22
2023-05-03T11:53:26.392Z,4.45
2023-05-03T11:55:54.628Z,5.68
2023-05-03T11:58:26.610Z,6.03
2023-05-03T12:00:55.978Z,6.45
2023-05-03T12:03:28.551Z,4.43
2023-05-03T12:05:58.410Z,4.30
2023-05-03T12:08:35.536Z,4.50
2023-05-03T12:11:06.444Z,4.40
2023-05-03T12:13:38.616Z,3.05
2023-05-03T12:16:13.685Z,3.83
2023-05-03T12:18:58.908Z,4.82
2023-05-03T12:21:59.145Z,6.28
2023-05-03T12:24:34.744Z,4.15
2023-05-03T12:27:02.925Z,3.80
2023-05-03T12:29:34.824Z,4.93
2023-05-03T12:32:03.801Z,4.70
2023-05-03T12:34:34.870Z,4.97
2023-05-03T12:37:05.588Z,4.78
2023-05-03T12:39:33.957Z,4.70
2023-05-03T12:44:35.124Z,6.78
2023-05-03T12:47:02.532Z,6.97
2023-05-03T12:49:29.633Z,6.07
2023-05-03T12:52:18.505Z,5.15
2023-05-03T12:54:48.786Z,13.68
2023-05-03T12:57:22.092Z,7.00
2023-05-03T12:59:55.656Z,3.63
2023-05-03T13:05:00.412Z,4.35
2023-05-03T13:12:28.120Z,7.20
2023-05-03T13:14:57.964Z,3.90
2023-05-03T13:17:25.169Z,3.67
2023-05-03T13:19:53.272Z,6.63
2023-05-03T13:22:19.888Z,4.90
2023-05-03T13:24:48.137Z,10.55
2023-05-03T13:27:15.990Z,5.05
2023-05-03T13:29:42.688Z,6.82
2023-05-03T13:32:09.656Z,7.22
2023-05-03T13:34:37.021Z,4.85
2023-05-03T13:37:04.770Z,6.03
2023-05-03T13:39:32.083Z,3.50
2023-05-03T13:41:59.041Z,7.25
2023-05-03T13:44:26.275Z,4.32
2023-05-03T13:46:53.647Z,4.15
2023-05-03T13:49:20.848Z,6.82
2023-05-03T13:51:47.751Z,3.97
2023-05-03T13:54:14.463Z,7.53
2023-05-03T13:56:42.904Z,7.78
2023-05-03T13:59:12.452Z,4.57
2023-05-03T14:04:06.703Z,7.40
2023-05-03T14:06:33.974Z,6.38
2023-05-03T14:09:02.016Z,3.30
2023-05-03T14:11:30.468Z,4.72
2023-05-03T14:13:58.567Z,3.60
2023-05-03T14:18:57.204Z,5.50
2023-05-03T14:21:23.885Z,6.65
2023-05-03T14:23:51.105Z,3.92
2023-05-03T14:26:19.383Z,5.45
2023-05-03T14:28:46.292Z,5.50
2023-05-03T14:31:13.376Z,5.18
2023-05-03T14:33:40.100Z,6.22
2023-05-03T14:36:08.562Z,3.45
2023-05-03T14:38:35.900Z,2.73
2023-05-03T14:41:02.820Z,5.60
2023-05-03T14:43:29.538Z,5.13
2023-05-03T14:45:56.168Z,5.13
2023-05-03T14:48:23.469Z,3.70
2023-05-03T14:50:51.770Z,7.87
2023-05-03T14:53:18.685Z,5.13
2023-05-03T14:55:46.101Z,7.30
2023-05-03T14:58:13.450Z,6.07
2023-05-03T15:00:41.501Z,3.55
2023-05-03T15:03:12.288Z,4.20
2023-05-03T15:05:46.574Z,7.10
2023-05-03T15:08:19.436Z,4.40
2023-05-03T15:10:47.773Z,3.70
2023-05-03T15:13:16.293Z,6.07
2023-05-03T15:15:44.257Z,5.22
2023-05-03T15:18:11.442Z,5.35
2023-05-03T15:20:38.690Z,5.32
2023-05-03T15:23:05.919Z,4.50
2023-05-03T15:25:32.778Z,6.30
2023-05-03T15:28:03.705Z,5.57
2023-05-03T15:30:31.318Z,3.63
2023-05-03T15:32:58.103Z,4.35
2023-05-03T15:35:24.810Z,8.73
2023-05-03T15:37:51.550Z,4.97
2023-05-03T15:40:18.711Z,4.60
2023-05-03T15:42:45.465Z,3.25
2023-05-03T15:45:13.197Z,9.02
2023-05-03T15:47:40.031Z,7.03
2023-05-03T15:50:13.570Z,5.90
2023-05-03T15:52:40.438Z,8.20
2023-05-03T15:55:09.069Z,5.43
2023-05-03T15:57:35.771Z,6.27
2023-05-03T16:00:03.292Z,5.00
2023-05-03T16:02:30.727Z,9.90
2023-05-03T16:04:57.469Z,4.57
2023-05-03T16:07:24.145Z,6.38
2023-05-03T16:09:51.058Z,5.90
2023-05-03T16:12:17.667Z,6.82
2023-05-03T16:14:44.308Z,3.63
2023-05-03T16:17:11.125Z,5.43
2023-05-03T16:19:37.822Z,5.97
2023-05-03T16:22:05.216Z,5.00
2023-05-03T16:24:33.423Z,5.90
2023-05-03T16:27:01.863Z,4.70
2023-05-03T16:29:29.888Z,3.13
2023-05-03T16:31:56.642Z,5.55
2023-05-03T16:34:23.395Z,6.57
2023-05-03T16:36:50.042Z,3.47
2023-05-03T16:39:16.776Z,4.20
2023-05-03T16:41:43.653Z,6.65
2023-05-03T16:44:10.252Z,5.18
2023-05-03T16:46:40.969Z,5.57
2023-05-03T16:49:07.632Z,4.88
2023-05-03T16:51:34.540Z,3.67
2023-05-03T16:54:03.892Z,9.57
2023-05-03T16:56:31.425Z,5.32
2023-05-03T16:58:59.346Z,5.80
2023-05-03T17:01:26.434Z,8.13
2023-05-03T17:03:53.456Z,5.20
2023-05-03T17:06:20.549Z,8.27
2023-05-03T17:08:47.201Z,4.68
2023-05-03T17:11:14.768Z,3.80
2023-05-03T17:13:41.841Z,5.78
2023-05-03T17:16:15.216Z,6.28
2023-05-03T17:18:42.715Z,6.07
2023-05-03T17:21:10.023Z,5.32
2023-05-03T17:23:38.510Z,4.68
2023-05-03T17:26:08.435Z,5.70
2023-05-03T17:28:36.059Z,5.55
2023-05-03T17:31:03.563Z,4.82
2023-05-03T17:33:30.248Z,9.95
2023-05-03T17:35:57.012Z,4.10
2023-05-03T17:38:23.865Z,7.57
2023-05-03T17:40:50.830Z,3.20
2023-05-03T17:43:17.989Z,5.93
2023-05-03T17:45:47.413Z,5.45
2023-05-03T17:50:43.232Z,4.43
2023-05-03T17:53:09.996Z,7.53
2023-05-03T17:55:38.194Z,6.50
2023-05-03T17:58:06.529Z,6.63
2023-05-03T18:00:34.019Z,5.40
2023-05-03T18:03:01.283Z,4.47
2023-05-03T18:05:28.294Z,7.60
2023-05-03T18:07:55.033Z,4.57
2023-05-03T18:10:22.371Z,4.05
2023-05-03T18:12:49.179Z,9.93
2023-05-03T18:15:16.255Z,7.07
2023-05-03T18:17:43.500Z,4.88
2023-05-03T18:20:11.026Z,8.32
2023-05-03T18:22:37.806Z,8.20
2023-05-03T18:25:07.437Z,5.65
2023-05-03T18:27:37.578Z,5.88
2023-05-03T18:30:06.871Z,5.82
2023-05-03T18:32:34.720Z,4.47
2023-05-03T18:35:03.634Z,6.25
2023-05-03T18:37:30.312Z,9.63
2023-05-03T18:39:56.936Z,4.40
2023-05-03T18:42:23.567Z,5.85
2023-05-03T18:44:50.336Z,6.18
2023-05-03T18:47:20.897Z,7.05
2023-05-03T18:49:51.708Z,6.95
2023-05-03T18:52:22.311Z,5.53
2023-05-03T18:54:52.421Z,7.07
2023-05-03T18:57:19.181Z,6.18
2023-05-03T18:59:59.564Z,7.68
2023-05-03T19:02:30.716Z,9.27
2023-05-03T19:04:58.198Z,12.68
2023-05-03T19:07:25.110Z,8.30
2023-05-03T19:09:56.011Z,6.90
2023-05-03T19:12:23.044Z,7.60
2023-05-03T19:14:49.935Z,8.85
2023-05-03T19:17:16.854Z,5.20
2023-05-03T19:19:43.548Z,6.38
2023-05-03T19:22:10.421Z,6.95
2023-05-03T19:24:37.087Z,8.43
2023-05-03T19:27:04.825Z,5.93
2023-05-03T19:29:31.709Z,6.20
2023-05-03T19:31:58.391Z,6.18
2023-05-03T19:34:25.148Z,5.88
2023-05-03T19:36:51.780Z,4.95
2023-05-03T19:39:18.380Z,6.25
2023-05-03T19:41:45.166Z,4.50
2023-05-03T19:44:12.319Z,5.50
2023-05-03T19:46:39.263Z,6.35
2023-05-03T19:49:06.318Z,6.85
2023-05-03T19:51:33.199Z,8.57
2023-05-03T19:54:03.293Z,4.00
2023-05-03T19:56:30.007Z,7.93
2023-05-03T19:58:56.963Z,7.40
2023-05-03T20:01:23.869Z,5.57
2023-05-03T20:03:53.515Z,6.80
2023-05-03T20:06:20.974Z,7.95
2023-05-03T20:08:47.696Z,5.55
2023-05-03T20:11:14.250Z,8.50
2023-05-03T20:13:40.860Z,8.43
2023-05-03T20:16:08.403Z,10.18
2023-05-03T20:18:35.279Z,8.25
2023-05-03T20:21:03.355Z,8.95
2023-05-03T20:23:29.999Z,8.93
2023-05-03T20:25:57.090Z,7.88
2023-05-03T20:28:23.877Z,7.53
2023-05-03T20:30:50.673Z,10.48
2023-05-03T20:33:17.353Z,6.40
2023-05-03T20:35:44.685Z,8.52
2023-05-03T20:38:11.485Z,7.72
2023-05-03T20:40:38.424Z,9.57
2023-05-03T20:43:05.061Z,6.18
2023-05-03T20:45:31.960Z,9.05
2023-05-03T20:47:58.763Z,6.05
2023-05-03T20:50:25.474Z,14.00
2023-05-03T20:52:52.081Z,7.97
2023-05-03T20:55:21.576Z,13.18
2023-05-03T21:00:15.991Z,12.85
2023-05-03T21:02:43.237Z,14.60
2023-05-03T21:05:11.398Z,12.25
2023-05-03T21:07:38.680Z,9.93
2023-05-03T21:10:07.321Z,8.15
2023-05-03T21:12:34.802Z,8.93
2023-05-03T21:15:01.630Z,15.05
2023-05-03T21:17:28.268Z,7.82
2023-05-03T21:19:54.921Z,8.13
2023-05-03T21:22:21.831Z,6.55
2023-05-03T21:24:48.543Z,7.07
2023-05-03T21:27:15.199Z,6.88
2023-05-03T21:29:41.780Z,6.88
2023-05-03T21:32:08.505Z,7.88
2023-05-03T21:34:35.218Z,8.40
2023-05-03T21:37:01.861Z,10.90
2023-05-03T21:39:28.732Z,7.72
2023-05-03T21:41:55.461Z,7.88
2023-05-03T21:44:22.079Z,8.02
2023-05-03T21:46:48.726Z,8.98
2023-05-03T21:49:15.900Z,9.15
2023-05-03T21:51:42.483Z,6.97
2023-05-03T21:54:09.103Z,7.20
2023-05-03T21:56:35.742Z,10.40
2023-05-03T21:59:02.336Z,8.73
2023-05-03T22:01:29.854Z,7.18
2023-05-03T22:03:56.665Z,9.10
2023-05-03T22:06:23.529Z,10.02
2023-05-03T22:08:50.121Z,6.72
2023-05-03T22:11:16.790Z,11.18
2023-05-03T22:13:58.770Z,10.20
2023-05-03T22:16:30.162Z,8.93
2023-05-03T22:18:57.002Z,7.93
2023-05-03T22:21:23.713Z,10.80
2023-05-03T22:23:50.299Z,10.48
2023-05-03T22:26:16.997Z,6.35
2023-05-03T22:28:44.286Z,7.20
2023-05-03T22:31:11.049Z,7.78
2023-05-03T22:33:37.694Z,7.28
2023-05-03T22:36:04.448Z,9.07
2023-05-03T22:38:31.374Z,11.05
2023-05-03T22:40:58.048Z,9.13
2023-05-03T22:43:24.661Z,7.95
2023-05-03T22:45:51.302Z,10.57
2023-05-03T22:48:17.923Z,12.02
2023-05-03T22:50:44.574Z,10.88
2023-05-03T22:53:11.256Z,11.10
2023-05-03T22:55:37.975Z,10.35
2023-05-03T22:58:04.568Z,11.52
2023-05-03T23:00:31.500Z,7.68
2023-05-03T23:02:58.815Z,7.22
2023-05-03T23:05:25.789Z,13.15
2023-05-03T23:07:52.661Z,8.13
2023-05-03T23:10:19.338Z,8.63
2023-05-03T23:12:46.113Z,8.50
2023-05-03T23:15:12.888Z,10.13
2023-05-03T23:17:40.029Z,8.93
2023-05-03T23:20:07.638Z,10.15
2023-05-03T23:22:34.353Z,11.23
2023-05-03T23:25:01.018Z,7.53
2023-05-03T23:27:27.645Z,12.27
2023-05-03T23:29:54.811Z,12.88
2023-05-03T23:32:22.050Z,9.00
2023-05-03T23:34:49.297Z,12.10
2023-05-03T23:37:15.915Z,11.15
2023-05-03T23:39:44.353Z,11.48
2023-05-03T23:42:12.225Z,10.98
2023-05-03T23:44:53.685Z,14.07
2023-05-03T23:47:21.122Z,13.77
2023-05-03T23:49:47.754Z,13.05
2023-05-03T23:52:16.898Z,13.35
2023-05-03T23:54:43.595Z,11.93
2023-05-03T23:57:10.276Z,11.57
2023-05-03T23:59:37.127Z,9.82
